Time;durP1;ratioP1;P1;durP2;ratioP2;P2;SDS_P1;SDS_P2;PMS_P1;PMS_P2;Temp;Humidity;BMP_temperature;BMP_pressure;BME280_temperature;BME280_humidity;BME280_pressure;Samples;Min_cycle;Max_cycle;Signal;HPM_P1;HPM_P2
2021/05/28 00:00:17;;;;;;;10.67;5.93;;;14.00;99.90;;;;;;5071940;28;20564;-70
2021/05/28 00:02:44;;;;;;;10.10;5.93;;;14.00;99.90;;;;;;5077604;28;20208;-69
2021/05/28 00:05:13;;;;;;;13.83;5.60;;;14.00;99.90;;;;;;5082024;28;20208;-72
2021/05/28 00:07:39;;;;;;;10.00;5.73;;;14.00;99.90;;;;;;5072984;28;20278;-71
2021/05/28 00:10:07;;;;;;;10.77;6.00;;;13.90;99.90;;;;;;5077533;28;20213;-71
2021/05/28 00:12:34;;;;;;;10.13;5.87;;;14.00;99.90;;;;;;5085891;28;20279;-71
2021/05/28 00:15:01;;;;;;;10.50;6.30;;;13.90;99.90;;;;;;5073849;28;20752;-71
2021/05/28 00:17:27;;;;;;;9.97;6.63;;;13.90;99.90;;;;;;5077469;28;20201;-71
2021/05/28 00:19:53;;;;;;;10.57;6.63;;;13.90;99.90;;;;;;5072216;28;20239;-70
2021/05/28 00:22:21;;;;;;;9.23;6.93;;;13.80;99.90;;;;;;5091645;28;20339;-70
2021/05/28 00:24:47;;;;;;;11.33;7.80;;;13.80;99.90;;;;;;5085335;28;20589;-70
2021/05/28 00:27:14;;;;;;;11.10;7.93;;;13.80;99.90;;;;;;5075098;28;20233;-71
2021/05/28 00:29:41;;;;;;;10.83;7.97;;;13.70;99.90;;;;;;5073351;28;20258;-71
2021/05/28 00:32:08;;;;;;;12.83;8.33;;;13.70;99.90;;;;;;5073573;28;20258;-71
2021/05/28 00:34:34;;;;;;;9.83;8.07;;;13.60;99.90;;;;;;5089970;28;20211;-71
2021/05/28 00:37:01;;;;;;;9.27;8.13;;;13.60;99.90;;;;;;5072951;28;20207;-70
2021/05/28 00:39:27;;;;;;;11.77;8.20;;;13.60;99.90;;;;;;5076843;28;20650;-69
2021/05/28 00:41:53;;;;;;;10.03;7.23;;;13.60;99.90;;;;;;5072586;28;20213;-70
2021/05/28 00:44:22;;;;;;;10.53;7.87;;;13.60;99.90;;;;;;5086499;28;20262;-71
2021/05/28 00:46:50;;;;;;;9.87;7.50;;;13.60;99.90;;;;;;5089784;28;20245;-71
2021/05/28 00:49:16;;;;;;;9.70;7.47;;;13.60;99.90;;;;;;5087596;28;20208;-70
2021/05/28 00:51:43;;;;;;;12.17;7.47;;;13.60;99.90;;;;;;5080938;28;20239;-70
2021/05/28 00:54:10;;;;;;;11.40;7.60;;;13.60;99.90;;;;;;5081698;28;20216;-70
2021/05/28 00:56:38;;;;;;;10.70;7.60;;;13.60;99.90;;;;;;5077212;28;20236;-70
2021/05/28 00:59:04;;;;;;;9.47;7.10;;;13.50;99.90;;;;;;5074343;28;20932;-71
2021/05/28 01:01:31;;;;;;;10.30;7.00;;;13.50;99.90;;;;;;5077899;28;20274;-70
2021/05/28 01:03:58;;;;;;;8.30;7.40;;;13.50;99.90;;;;;;5095583;28;20235;-72
2021/05/28 01:06:26;;;;;;;11.97;7.10;;;13.40;99.90;;;;;;5078796;28;20252;-70
2021/05/28 01:08:52;;;;;;;11.50;7.50;;;13.40;99.90;;;;;;5081250;28;20283;-70
2021/05/28 01:11:19;;;;;;;9.37;7.60;;;13.40;99.90;;;;;;5083891;28;20308;-70
2021/05/28 01:13:45;;;;;;;9.73;7.07;;;13.40;99.90;;;;;;5089905;28;20257;-70
2021/05/28 01:16:11;;;;;;;10.37;8.07;;;13.30;99.90;;;;;;5080268;28;20240;-71
2021/05/28 01:18:38;;;;;;;11.83;7.87;;;13.30;99.90;;;;;;5092571;28;20412;-71
2021/05/28 01:21:05;;;;;;;11.63;7.90;;;13.20;99.90;;;;;;5085033;28;20228;-70
2021/05/28 01:23:32;;;;;;;11.27;8.23;;;13.20;99.90;;;;;;5088409;28;20216;-71
2021/05/28 01:25:59;;;;;;;10.77;7.70;;;13.10;99.90;;;;;;5086605;28;20320;-71
2021/05/28 01:28:26;;;;;;;9.67;7.77;;;13.10;99.90;;;;;;5075922;28;20686;-70
2021/05/28 01:30:52;;;;;;;10.97;7.37;;;13.10;99.90;;;;;;5069558;28;20830;-70
2021/05/28 01:33:18;;;;;;;11.40;7.80;;;13.10;99.90;;;;;;5069638;28;20237;-70
2021/05/28 01:35:45;;;;;;;11.37;7.80;;;13.00;99.90;;;;;;5080923;28;20660;-70
2021/05/28 01:38:11;;;;;;;10.67;8.13;;;13.00;99.90;;;;;;5085396;28;20205;-70
2021/05/28 01:40:38;;;;;;;9.80;8.03;;;13.00;99.90;;;;;;5085587;28;20209;-70
2021/05/28 01:43:05;;;;;;;11.60;8.60;;;12.90;99.90;;;;;;5076318;28;20213;-70
2021/05/28 01:45:31;;;;;;;13.07;8.53;;;12.80;99.90;;;;;;5084021;28;20283;-70
2021/05/28 01:47:57;;;;;;;10.17;8.30;;;12.70;99.90;;;;;;5081973;28;20843;-71
2021/05/28 01:50:24;;;;;;;11.13;8.73;;;12.70;99.90;;;;;;5075080;28;20645;-70
2021/05/28 01:52:50;;;;;;;14.83;9.53;;;12.60;99.90;;;;;;5083562;28;20266;-70
2021/05/28 01:55:16;;;;;;;9.93;8.33;;;12.60;99.90;;;;;;5085152;28;20300;-70
2021/05/28 01:57:44;;;;;;;12.57;9.30;;;12.50;99.90;;;;;;5086990;28;20229;-71
2021/05/28 02:00:14;;;;;;;12.07;9.03;;;12.50;99.90;;;;;;5082492;28;20208;-70
2021/05/28 02:02:40;;;;;;;13.67;9.47;;;12.40;99.90;;;;;;5081316;28;20205;-71
2021/05/28 02:05:08;;;;;;;13.07;9.23;;;12.40;99.90;;;;;;5081770;28;20275;-70
2021/05/28 02:07:34;;;;;;;12.83;9.60;;;12.30;99.90;;;;;;5088192;28;20217;-72
2021/05/28 02:10:01;;;;;;;10.70;8.47;;;12.30;99.90;;;;;;5074769;28;20205;-70
2021/05/28 02:12:27;;;;;;;13.60;8.73;;;12.20;99.90;;;;;;5076481;28;20292;-70
2021/05/28 02:14:57;;;;;;;17.47;9.47;;;12.20;99.90;;;;;;5088142;28;20282;-70
2021/05/28 02:17:24;;;;;;;14.37;9.00;;;12.20;99.90;;;;;;5073228;28;20202;-70
2021/05/28 02:19:50;;;;;;;9.13;8.10;;;12.10;99.90;;;;;;5078212;28;20209;-71
2021/05/28 02:22:16;;;;;;;11.27;8.57;;;12.10;99.90;;;;;;5076124;28;20301;-70
2021/05/28 02:24:43;;;;;;;11.30;8.93;;;12.10;99.90;;;;;;5083112;28;20205;-71
2021/05/28 02:27:09;;;;;;;11.83;9.00;;;12.10;99.90;;;;;;5083345;28;20669;-72
2021/05/28 02:29:36;;;;;;;15.03;9.37;;;12.00;99.90;;;;;;5090652;28;20658;-70
2021/05/28 02:32:03;;;;;;;13.83;9.47;;;12.00;99.90;;;;;;5073528;28;20217;-70
2021/05/28 02:34:29;;;;;;;11.37;9.13;;;12.00;99.90;;;;;;5072479;28;20197;-70
2021/05/28 02:36:56;;;;;;;11.47;8.93;;;12.00;99.90;;;;;;5068433;28;20222;-72
2021/05/28 02:39:22;;;;;;;11.83;9.10;;;12.10;99.90;;;;;;5080834;28;20213;-70
2021/05/28 02:41:49;;;;;;;11.27;8.40;;;12.00;99.90;;;;;;5088063;28;20211;-70
2021/05/28 02:44:15;;;;;;;10.57;8.57;;;12.10;99.90;;;;;;5076695;28;20961;-70
2021/05/28 02:46:41;;;;;;;11.27;9.07;;;12.10;99.90;;;;;;5081579;28;20228;-70
2021/05/28 02:49:09;;;;;;;10.07;8.73;;;12.10;99.90;;;;;;5071991;28;20667;-70
2021/05/28 02:51:36;;;;;;;10.23;8.90;;;12.10;99.90;;;;;;5081970;28;20215;-71
2021/05/28 02:54:02;;;;;;;12.40;8.93;;;12.10;99.90;;;;;;5078180;28;20208;-70
2021/05/28 02:56:29;;;;;;;12.87;9.10;;;12.10;99.90;;;;;;5072702;28;20236;-70
2021/05/28 02:58:55;;;;;;;10.90;7.87;;;12.10;99.90;;;;;;5074902;28;20634;-70
2021/05/28 03:01:21;;;;;;;9.90;8.87;;;12.10;99.90;;;;;;5075789;28;20691;-70
2021/05/28 03:03:48;;;;;;;9.80;8.23;;;12.10;99.90;;;;;;5073464;28;20638;-70
2021/05/28 03:06:15;;;;;;;11.13;8.60;;;12.10;99.90;;;;;;5081093;28;20250;-70
2021/05/28 03:08:42;;;;;;;11.90;8.70;;;12.20;99.90;;;;;;5082622;28;20215;-70
2021/05/28 03:11:08;;;;;;;11.83;7.90;;;12.30;99.90;;;;;;5076710;28;20295;-69
2021/05/28 03:13:34;;;;;;;9.47;8.20;;;12.30;99.90;;;;;;5088598;28;20224;-71
2021/05/28 03:16:01;;;;;;;9.90;8.50;;;12.40;99.90;;;;;;5081943;28;20211;-69
2021/05/28 03:18:35;;;;;;;10.10;8.17;;;12.50;99.90;;;;;;5080217;28;20197;-70
2021/05/28 03:21:19;;;;;;;10.23;8.23;;;12.60;99.90;;;;;;5072865;28;20228;-70
2021/05/28 03:23:46;;;;;;;11.30;8.37;;;12.70;99.90;;;;;;5073759;28;20204;-70
2021/05/28 03:26:13;;;;;;;11.13;8.43;;;12.80;99.90;;;;;;5073918;28;20213;-69
2021/05/28 03:28:39;;;;;;;11.20;7.77;;;12.90;99.90;;;;;;5091670;28;20259;-70
2021/05/28 03:31:05;;;;;;;8.23;7.37;;;12.90;99.90;;;;;;5070386;28;20209;-71
2021/05/28 03:33:32;;;;;;;9.87;7.20;;;13.00;99.90;;;;;;5075266;28;20220;-71
2021/05/28 03:35:59;;;;;;;8.90;7.70;;;13.10;99.90;;;;;;5073481;28;20292;-71
2021/05/28 03:38:26;;;;;;;9.47;8.03;;;13.20;99.90;;;;;;5071124;28;20209;-70
2021/05/28 03:40:53;;;;;;;9.20;7.20;;;13.40;99.90;;;;;;5080163;28;20203;-70
2021/05/28 03:43:19;;;;;;;9.13;6.97;;;13.40;99.90;;;;;;5076738;28;20205;-70
2021/05/28 03:45:46;;;;;;;7.67;6.90;;;13.40;99.90;;;;;;5080984;28;20268;-71
2021/05/28 03:48:12;;;;;;;9.37;7.27;;;13.50;99.90;;;;;;5074326;28;20225;-71
2021/05/28 03:50:39;;;;;;;8.10;6.83;;;13.60;99.90;;;;;;5075954;28;20546;-71
2021/05/28 03:53:05;;;;;;;8.53;6.97;;;13.70;99.90;;;;;;5075573;28;20209;-70
2021/05/28 03:55:31;;;;;;;10.03;6.77;;;13.70;99.90;;;;;;5069351;28;20202;-71
2021/05/28 03:57:59;;;;;;;7.87;5.97;;;13.70;99.90;;;;;;5080631;28;20200;-70
2021/05/28 04:00:25;;;;;;;7.40;6.13;;;13.70;99.90;;;;;;5070778;28;20201;-71
2021/05/28 04:02:52;;;;;;;7.27;6.30;;;13.70;99.90;;;;;;5078031;28;20223;-70
2021/05/28 04:05:18;;;;;;;8.00;6.60;;;13.70;99.90;;;;;;5086527;28;20241;-70
2021/05/28 04:07:44;;;;;;;7.80;6.70;;;13.70;99.90;;;;;;5070460;28;20561;-71
2021/05/28 04:10:12;;;;;;;9.47;6.40;;;13.70;99.90;;;;;;5076750;28;20212;-69
2021/05/28 04:12:38;;;;;;;6.63;6.03;;;13.70;99.90;;;;;;5082595;28;20208;-70
2021/05/28 04:15:07;;;;;;;7.07;6.37;;;13.70;99.90;;;;;;5070506;28;20312;-70
2021/05/28 04:17:33;;;;;;;8.97;6.30;;;13.70;99.90;;;;;;5079094;28;20201;-69
2021/05/28 04:20:00;;;;;;;9.27;6.60;;;13.60;99.90;;;;;;5074614;28;20220;-70
2021/05/28 04:22:26;;;;;;;8.97;6.57;;;13.50;99.90;;;;;;5071811;28;20201;-70
2021/05/28 04:24:53;;;;;;;7.40;6.60;;;13.50;99.90;;;;;;5075899;28;20293;-70
2021/05/28 04:27:19;;;;;;;8.47;6.63;;;13.40;99.90;;;;;;5080945;28;20886;-70
2021/05/28 04:29:46;;;;;;;6.53;5.80;;;13.40;99.90;;;;;;5080984;28;20262;-70
2021/05/28 04:32:13;;;;;;;7.00;6.30;;;13.30;99.90;;;;;;5085318;28;20303;-70
2021/05/28 04:34:39;;;;;;;7.43;6.17;;;13.40;99.90;;;;;;5069472;28;20243;-69
2021/05/28 04:37:07;;;;;;;12.63;7.00;;;13.40;99.90;;;;;;5071159;28;20296;-70
2021/05/28 04:39:33;;;;;;;7.13;6.17;;;13.40;99.90;;;;;;5071087;28;20658;-72
2021/05/28 04:42:00;;;;;;;7.73;6.67;;;13.50;99.90;;;;;;5085876;28;20701;-71
2021/05/28 04:44:26;;;;;;;9.17;7.23;;;13.40;99.90;;;;;;5077436;28;20265;-72
2021/05/28 04:46:53;;;;;;;7.63;6.13;;;13.40;99.90;;;;;;5079270;28;20238;-72
2021/05/28 04:49:20;;;;;;;7.90;6.50;;;13.50;99.90;;;;;;5069179;28;20201;-71
2021/05/28 04:51:48;;;;;;;6.90;6.30;;;13.50;99.90;;;;;;5067939;28;20224;-71
2021/05/28 04:54:14;;;;;;;6.80;6.20;;;13.50;99.90;;;;;;5070915;28;20220;-70
2021/05/28 04:56:40;;;;;;;6.80;6.07;;;13.50;99.90;;;;;;5071365;28;20289;-71
2021/05/28 04:59:07;;;;;;;6.97;6.27;;;13.50;99.90;;;;;;5082660;28;20300;-71
2021/05/28 05:01:34;;;;;;;7.27;5.70;;;13.60;99.90;;;;;;5074466;28;20237;-71
2021/05/28 05:04:00;;;;;;;7.67;5.90;;;13.60;99.90;;;;;;5074896;28;20216;-71
2021/05/28 05:06:27;;;;;;;6.60;5.80;;;13.70;99.90;;;;;;5081298;28;20571;-70
2021/05/28 05:08:53;;;;;;;6.97;6.13;;;13.80;99.90;;;;;;5078479;28;20274;-70
2021/05/28 05:11:20;;;;;;;8.03;6.27;;;13.90;99.90;;;;;;5078858;28;20219;-71
2021/05/28 05:13:47;;;;;;;9.00;5.90;;;13.90;99.90;;;;;;5075930;28;20652;-71
2021/05/28 05:16:13;;;;;;;6.20;5.60;;;14.00;99.90;;;;;;5081320;28;20308;-71
2021/05/28 05:18:39;;;;;;;6.40;5.73;;;14.00;99.90;;;;;;5073508;28;20288;-72
2021/05/28 05:21:06;;;;;;;7.73;5.90;;;14.10;99.90;;;;;;5073012;28;20205;-71
2021/05/28 05:23:33;;;;;;;7.03;6.00;;;14.10;99.90;;;;;;5071620;28;20253;-72
2021/05/28 05:26:00;;;;;;;7.40;6.70;;;14.10;99.90;;;;;;5074560;28;20654;-72
2021/05/28 05:28:26;;;;;;;10.17;7.80;;;14.20;99.90;;;;;;5076448;28;20350;-71
2021/05/28 05:30:52;;;;;;;8.90;6.93;;;14.30;99.90;;;;;;5074592;28;20202;-70
2021/05/28 05:33:19;;;;;;;9.87;7.63;;;14.30;99.90;;;;;;5082053;28;20615;-71
2021/05/28 05:35:45;;;;;;;7.33;6.63;;;14.40;99.90;;;;;;5077197;28;20205;-70
2021/05/28 05:38:12;;;;;;;6.27;5.67;;;14.40;99.90;;;;;;5080720;28;20207;-71
2021/05/28 05:40:39;;;;;;;7.20;6.27;;;14.50;99.90;;;;;;5083757;28;20295;-72
2021/05/28 05:43:06;;;;;;;7.70;6.70;;;14.60;99.90;;;;;;5083846;28;20342;-71
2021/05/28 05:45:33;;;;;;;7.43;6.57;;;14.70;99.90;;;;;;5080929;28;20233;-70
2021/05/28 05:47:59;;;;;;;7.87;6.87;;;14.70;99.90;;;;;;5084950;28;20235;-71
2021/05/28 05:50:26;;;;;;;7.83;6.97;;;14.80;99.90;;;;;;5079675;28;20289;-70
2021/05/28 05:52:53;;;;;;;8.03;6.77;;;14.80;99.90;;;;;;5073265;28;20607;-71
2021/05/28 05:55:20;;;;;;;9.63;7.07;;;14.90;99.90;;;;;;5073316;28;20227;-70
2021/05/28 05:57:47;;;;;;;8.33;7.47;;;15.00;99.90;;;;;;5069586;28;20253;-72
2021/05/28 06:00:14;;;;;;;8.37;7.50;;;15.10;99.90;;;;;;5082784;28;20291;-69
2021/05/28 06:02:41;;;;;;;7.70;6.90;;;15.10;99.90;;;;;;5069171;28;20292;-69
2021/05/28 06:05:08;;;;;;;8.30;7.40;;;15.20;99.90;;;;;;5068997;28;20243;-69
2021/05/28 06:07:35;;;;;;;10.83;7.20;;;15.20;99.90;;;;;;5076941;28;20232;-69
2021/05/28 06:10:01;;;;;;;7.63;6.80;;;15.30;99.90;;;;;;5076399;28;20296;-68
2021/05/28 06:12:28;;;;;;;8.70;7.23;;;15.40;99.90;;;;;;5060015;28;20655;-70
2021/05/28 06:14:58;;;;;;;10.53;7.37;;;15.50;99.90;;;;;;5073621;28;20225;-69
2021/05/28 06:17:25;;;;;;;11.27;7.37;;;15.60;99.90;;;;;;5075531;28;20209;-70
2021/05/28 06:19:52;;;;;;;8.30;6.67;;;15.70;99.90;;;;;;5072913;28;20236;-69
2021/05/28 06:22:21;;;;;;;9.40;7.07;;;15.80;99.90;;;;;;5071795;28;20205;-68
2021/05/28 06:24:49;;;;;;;7.60;6.80;;;15.90;99.90;;;;;;5074690;28;20212;-68
2021/05/28 06:27:15;;;;;;;7.57;6.77;;;16.00;99.90;;;;;;5078506;28;20666;-68
2021/05/28 06:29:42;;;;;;;7.90;5.90;;;16.00;99.90;;;;;;5075321;28;20903;-70
2021/05/28 06:32:09;;;;;;;6.70;5.63;;;16.00;99.90;;;;;;5075870;28;20201;-70
2021/05/28 06:34:36;;;;;;;7.00;6.17;;;16.00;99.90;;;;;;5062558;28;20229;-70
2021/05/28 06:37:02;;;;;;;7.27;6.43;;;16.10;99.90;;;;;;5075823;28;20224;-69
2021/05/28 06:39:28;;;;;;;8.23;5.60;;;16.00;99.90;;;;;;5076590;28;20292;-69
2021/05/28 06:41:55;;;;;;;6.53;5.90;;;16.00;99.90;;;;;;5075666;28;20304;-69
2021/05/28 06:44:23;;;;;;;6.80;6.10;;;16.00;99.90;;;;;;5075434;28;20291;-70
2021/05/28 06:46:50;;;;;;;7.10;5.90;;;16.10;99.90;;;;;;5074831;28;20209;-69
2021/05/28 06:49:17;;;;;;;8.27;6.80;;;16.20;99.90;;;;;;5069014;28;20340;-69
2021/05/28 06:51:44;;;;;;;9.33;6.53;;;16.20;99.90;;;;;;5071475;28;20240;-71
2021/05/28 06:54:10;;;;;;;8.07;6.90;;;16.20;99.90;;;;;;5075216;28;20297;-71
2021/05/28 06:56:37;;;;;;;7.03;6.27;;;16.20;99.90;;;;;;5075718;28;20789;-69
2021/05/28 06:59:05;;;;;;;6.93;6.23;;;16.10;99.90;;;;;;5076173;28;20237;-71
2021/05/28 07:01:32;;;;;;;7.30;6.60;;;16.10;99.90;;;;;;5075685;28;20213;-66
2021/05/28 07:04:00;;;;;;;7.37;6.20;;;16.10;99.90;;;;;;5073794;28;20208;-68
2021/05/28 07:06:28;;;;;;;7.47;6.63;;;16.00;99.90;;;;;;5074276;28;20252;-70
2021/05/28 07:08:54;;;;;;;9.07;6.47;;;16.00;99.90;;;;;;5075257;28;20652;-69
2021/05/28 07:11:21;;;;;;;8.33;6.40;;;16.00;99.90;;;;;;5071355;28;20297;-71
2021/05/28 07:13:47;;;;;;;7.90;5.50;;;16.00;99.90;;;;;;5064186;28;20685;-70
2021/05/28 07:16:14;;;;;;;6.30;4.90;;;16.00;99.90;;;;;;5074603;28;20927;-69
2021/05/28 07:18:41;;;;;;;6.20;5.10;;;16.00;99.90;;;;;;5075347;28;20598;-69
2021/05/28 07:21:07;;;;;;;8.80;5.23;;;16.00;99.90;;;;;;5074302;28;20216;-70
2021/05/28 07:23:35;;;;;;;7.00;4.37;;;16.00;99.90;;;;;;5073482;28;20237;-73
2021/05/28 07:26:02;;;;;;;5.97;4.57;;;16.10;99.90;;;;;;5079270;28;20257;-68
2021/05/28 07:28:30;;;;;;;5.27;4.33;;;16.10;99.90;;;;;;5064630;28;20329;-68
2021/05/28 07:30:57;;;;;;;4.80;4.30;;;16.30;99.90;;;;;;5074133;28;20228;-68
2021/05/28 07:33:24;;;;;;;4.50;3.70;;;16.50;99.90;;;;;;5057336;28;20308;-70
2021/05/28 07:35:51;;;;;;;4.70;4.13;;;16.70;99.90;;;;;;5069949;28;20359;-71
2021/05/28 07:38:17;;;;;;;4.03;3.63;;;17.00;99.90;;;;;;5072366;28;20575;-69
2021/05/28 07:40:45;;;;;;;3.77;2.97;;;17.30;99.90;;;;;;5064991;28;20214;-71
2021/05/28 07:43:11;;;;;;;5.03;3.23;;;17.50;99.90;;;;;;5065062;28;20234;-69
2021/05/28 07:45:39;;;;;;;4.87;3.50;;;17.80;99.90;;;;;;5062259;28;20334;-71
2021/05/28 07:48:06;;;;;;;3.60;2.50;;;18.10;99.50;;;;;;5073925;28;20229;-71
2021/05/28 07:50:44;;;;;;;4.23;2.53;;;18.10;98.30;;;;;;5073549;28;20228;-68
2021/05/28 07:53:11;;;;;;;7.87;2.23;;;18.20;97.40;;;;;;5067647;28;20212;-70
2021/05/28 07:55:37;;;;;;;3.50;2.20;;;18.20;96.00;;;;;;5076342;28;20239;-71
2021/05/28 07:58:05;;;;;;;2.30;1.80;;;18.10;95.30;;;;;;5073132;28;20210;-71
2021/05/28 08:00:31;;;;;;;5.10;2.97;;;18.10;94.50;;;;;;5064462;28;20646;-71
2021/05/28 08:02:59;;;;;;;4.47;3.10;;;18.10;94.30;;;;;;5072696;28;20255;-69
2021/05/28 08:05:26;;;;;;;3.23;2.70;;;18.00;94.20;;;;;;5068421;28;20615;-68
2021/05/28 08:07:52;;;;;;;5.50;3.30;;;17.90;94.50;;;;;;5071681;28;20656;-70
2021/05/28 08:10:19;;;;;;;4.70;3.43;;;17.90;94.80;;;;;;5076441;28;20296;-69
2021/05/28 08:12:46;;;;;;;3.60;3.20;;;17.90;95.00;;;;;;5070481;28;20568;-70
2021/05/28 08:15:14;;;;;;;2.50;2.30;;;18.10;94.90;;;;;;5073597;28;20316;-70
2021/05/28 08:17:40;;;;;;;2.93;2.63;;;18.40;94.20;;;;;;5064409;28;20206;-70
2021/05/28 08:20:08;;;;;;;4.87;2.27;;;18.50;92.70;;;;;;5072123;28;20213;-68
2021/05/28 08:22:34;;;;;;;3.37;2.10;;;18.70;92.10;;;;;;5072366;28;20333;-70
2021/05/28 08:25:01;;;;;;;2.60;2.27;;;18.90;91.50;;;;;;5066726;28;20759;-67
2021/05/28 08:27:28;;;;;;;4.88;4.07;;;19.00;91.00;;;;;;5072696;28;20680;-67
2021/05/28 08:29:54;;;;;;;2.37;2.17;;;19.10;90.40;;;;;;5072817;28;20288;-71
2021/05/28 08:32:21;;;;;;;2.60;2.40;;;19.30;89.60;;;;;;5070866;28;20216;-69
2021/05/28 08:34:48;;;;;;;2.90;2.10;;;19.40;87.30;;;;;;5069160;28;20216;-69
2021/05/28 08:37:14;;;;;;;6.00;2.60;;;19.50;85.80;;;;;;5069824;28;20215;-72
2021/05/28 08:39:41;;;;;;;2.30;2.10;;;19.50;84.80;;;;;;5073368;28;20683;-71
2021/05/28 08:42:10;;;;;;;2.20;1.90;;;19.50;83.80;;;;;;5075603;28;20300;-70
2021/05/28 08:44:37;;;;;;;2.07;1.87;;;19.30;82.60;;;;;;5072479;28;20310;-72
2021/05/28 08:47:04;;;;;;;2.88;2.67;;;19.20;81.50;;;;;;5079767;28;20220;-72
2021/05/28 08:49:31;;;;;;;2.03;1.90;;;19.20;81.60;;;;;;5073955;28;20225;-71
2021/05/28 08:52:00;;;;;;;2.22;2.03;;;19.40;82.30;;;;;;5077105;28;20212;-70
2021/05/28 08:54:26;;;;;;;1.67;1.57;;;19.60;81.10;;;;;;5073120;28;20205;-73
2021/05/28 08:56:53;;;;;;;1.58;1.48;;;19.70;78.40;;;;;;5070117;28;20240;-70
2021/05/28 08:59:20;;;;;;;1.63;1.52;;;19.70;76.80;;;;;;5071162;28;20207;-72
2021/05/28 09:01:46;;;;;;;3.20;1.88;;;19.70;75.10;;;;;;5074615;28;20204;-70
2021/05/28 09:04:13;;;;;;;2.35;1.90;;;19.70;74.70;;;;;;5071646;28;20619;-72
2021/05/28 09:06:41;;;;;;;3.28;2.85;;;19.60;74.50;;;;;;5076296;28;20196;-70
2021/05/28 09:09:12;;;;;;;2.78;2.30;;;19.70;76.00;;;;;;5072218;28;20324;-71
2021/05/28 09:11:53;;;;;;;2.50;1.95;;;19.80;76.90;;;;;;5075046;28;20231;-71
2021/05/28 09:14:34;;;;;;;4.78;1.65;;;19.90;75.70;;;;;;5069079;28;20236;-70
2021/05/28 09:17:00;;;;;;;5.05;1.60;;;19.90;75.10;;;;;;5071432;28;20646;-70
2021/05/28 09:19:27;;;;;;;4.63;1.80;;;20.00;74.80;;;;;;5073892;28;20201;-69
2021/05/28 09:22:02;;;;;;;1.50;1.40;;;20.10;73.40;;;;;;5079245;28;20624;-70
2021/05/28 09:24:31;;;;;;;1.73;1.00;;;20.30;72.70;;;;;;5067492;28;20212;-70
2021/05/28 09:27:18;;;;;;;1.30;1.20;;;20.50;71.10;;;;;;5074208;28;20201;-72
2021/05/28 09:30:01;;;;;;;1.70;1.33;;;20.80;68.60;;;;;;5074975;28;20595;-70
2021/05/28 09:32:28;;;;;;;2.78;1.33;;;20.90;67.50;;;;;;5075047;28;20319;-70
2021/05/28 09:34:55;;;;;;;1.67;1.50;;;20.80;67.80;;;;;;5083282;28;20563;-70
2021/05/28 09:37:34;;;;;;;1.55;1.38;;;20.70;67.80;;;;;;5072135;28;20664;-70
2021/05/28 09:40:05;;;;;;;1.33;1.20;;;20.60;68.20;;;;;;5077810;28;20292;-69
2021/05/28 09:42:49;;;;;;;2.03;1.35;;;20.60;68.50;;;;;;5073830;28;20626;-70
2021/05/28 09:45:21;;;;;;;1.15;1.05;;;20.80;68.20;;;;;;5077534;28;20200;-70
2021/05/28 09:47:48;;;;;;;2.55;1.75;;;21.00;67.40;;;;;;5079475;28;20657;-70
2021/05/28 09:50:15;;;;;;;1.58;1.10;;;21.00;66.00;;;;;;5080344;28;20694;-70
2021/05/28 09:52:43;;;;;;;1.17;1.08;;;21.20;66.10;;;;;;5070637;28;20217;-70
2021/05/28 09:55:11;;;;;;;1.48;1.08;;;21.40;65.00;;;;;;5071305;28;20247;-71
2021/05/28 09:57:39;;;;;;;1.33;1.23;;;21.70;64.10;;;;;;5073293;28;20251;-70
2021/05/28 10:00:08;;;;;;;1.00;1.00;;;21.90;62.30;;;;;;5081728;28;20241;-70
2021/05/28 10:02:37;;;;;;;1.55;1.10;;;22.20;61.10;;;;;;5088047;28;20220;-71
2021/05/28 10:05:05;;;;;;;1.10;1.10;;;22.40;60.00;;;;;;5082096;28;20266;-70
2021/05/28 10:07:32;;;;;;;2.22;1.40;;;22.30;59.10;;;;;;5079289;28;20217;-71
2021/05/28 10:09:59;;;;;;;1.80;1.70;;;22.20;58.90;;;;;;5078304;28;20655;-69
2021/05/28 10:12:26;;;;;;;1.60;1.50;;;22.10;59.50;;;;;;5073924;28;20201;-70
2021/05/28 10:14:53;;;;;;;1.50;1.40;;;22.10;59.40;;;;;;5088289;28;20270;-70
2021/05/28 10:17:21;;;;;;;2.65;1.30;;;22.00;59.70;;;;;;5085135;28;20295;-70
2021/05/28 10:19:48;;;;;;;2.17;1.13;;;22.00;59.90;;;;;;5076444;28;20229;-70
2021/05/28 10:22:16;;;;;;;1.05;0.95;;;22.10;58.90;;;;;;5073862;28;20292;-71
2021/05/28 10:24:46;;;;;;;1.55;0.70;;;22.10;57.40;;;;;;5076995;28;20331;-70
2021/05/28 10:27:22;;;;;;;1.65;1.30;;;22.10;56.50;;;;;;5076564;28;20639;-70
2021/05/28 10:29:50;;;;;;;1.38;1.10;;;22.20;56.00;;;;;;5071933;28;20311;-70
2021/05/28 10:32:17;;;;;;;3.15;0.90;;;22.20;55.60;;;;;;5075512;28;20213;-69
2021/05/28 10:35:03;;;;;;;1.95;1.80;;;22.30;55.80;;;;;;5089170;28;20196;-71
2021/05/28 10:37:30;;;;;;;4.43;1.67;;;22.50;55.90;;;;;;5068990;28;20223;-69
2021/05/28 10:39:57;;;;;;;2.13;1.92;;;22.80;55.50;;;;;;5075344;28;20205;-70
2021/05/28 10:42:24;;;;;;;6.25;1.20;;;23.00;55.00;;;;;;5073486;28;20296;-70
2021/05/28 10:44:51;;;;;;;2.92;1.45;;;23.10;54.80;;;;;;5073091;28;20210;-69
2021/05/28 10:47:22;;;;;;;3.20;1.50;;;23.30;54.60;;;;;;5067198;28;20689;-70
2021/05/28 10:49:49;;;;;;;1.20;1.10;;;23.10;54.50;;;;;;5072634;28;20274;-70
2021/05/28 10:52:30;;;;;;;1.70;1.60;;;22.90;54.70;;;;;;5063491;28;20217;-69
2021/05/28 10:54:59;;;;;;;2.25;1.42;;;22.80;55.60;;;;;;5083835;28;20231;-70
2021/05/28 10:57:30;;;;;;;4.03;1.30;;;22.90;56.50;;;;;;5077053;28;20225;-69
2021/05/28 10:59:59;;;;;;;2.15;1.52;;;23.00;56.70;;;;;;5062272;28;20217;-67
2021/05/28 11:03:09;;;;;;;3.75;1.33;;;23.10;56.00;;;;;;5071343;28;20278;-70
2021/05/28 11:05:50;;;;;;;4.32;1.40;;;22.90;55.90;;;;;;5054790;28;20288;-70
2021/05/28 11:08:42;;;;;;;2.67;1.20;;;22.70;55.80;;;;;;5075500;28;20635;-69
2021/05/28 11:11:17;;;;;;;1.17;0.93;;;22.40;55.90;;;;;;5071437;28;20205;-68
2021/05/28 11:14:05;;;;;;;1.63;1.30;;;22.10;55.90;;;;;;5072681;28;20271;-68
2021/05/28 11:17:09;;;;;;;4.63;1.45;;;21.80;56.20;;;;;;5066706;28;20712;-68
2021/05/28 11:19:42;;;;;;;4.28;1.85;;;21.40;57.50;;;;;;5066204;28;20274;-68
2021/05/28 11:22:11;;;;;;;1.92;1.63;;;20.90;59.50;;;;;;5074245;28;20556;-69
2021/05/28 11:24:58;;;;;;;2.33;2.13;;;20.60;61.40;;;;;;5075386;28;20282;-66
2021/05/28 11:27:48;;;;;;;1.95;1.55;;;20.40;63.50;;;;;;5075388;28;20221;-67
2021/05/28 11:30:36;;;;;;;5.68;1.40;;;20.20;64.40;;;;;;5075623;28;20662;-72
2021/05/28 11:33:02;;;;;;;3.95;1.40;;;20.30;64.90;;;;;;5073409;28;20316;-68
2021/05/28 11:35:37;;;;;;;4.20;1.25;;;20.30;64.30;;;;;;5070074;28;20233;-69
2021/05/28 11:38:05;;;;;;;2.17;1.30;;;20.20;63.20;;;;;;5075063;28;20283;-70
2021/05/28 11:40:38;;;;;;;1.38;1.25;;;20.00;62.80;;;;;;5061988;28;20702;-70
2021/05/28 11:43:06;;;;;;;0.70;0.70;;;19.90;62.60;;;;;;5074299;28;20212;-67
2021/05/28 11:45:34;;;;;;;0.82;0.82;;;19.90;62.30;;;;;;5072996;28;20205;-67
2021/05/28 11:48:01;;;;;;;2.08;1.10;;;19.70;61.50;;;;;;5076153;28;20364;-68
2021/05/28 11:50:39;;;;;;;1.52;0.70;;;19.50;61.50;;;;;;5066687;28;20232;-68
2021/05/28 11:53:07;;;;;;;2.85;0.80;;;19.40;61.70;;;;;;5065048;28;20208;-69
2021/05/28 11:55:43;;;;;;;0.68;0.50;;;19.20;61.90;;;;;;5073151;28;20212;-67
2021/05/28 11:58:10;;;;;;;2.00;0.77;;;19.10;62.30;;;;;;5074126;28;20948;-69
2021/05/28 12:00:37;;;;;;;1.02;0.77;;;18.90;62.40;;;;;;5074651;28;20752;-68
2021/05/28 12:03:04;;;;;;;1.92;1.05;;;18.80;62.40;;;;;;5074582;28;20292;-69
2021/05/28 12:05:34;;;;;;;2.67;0.80;;;18.80;62.40;;;;;;5073734;28;20603;-66
2021/05/28 12:08:15;;;;;;;2.30;0.90;;;18.80;62.00;;;;;;5071071;28;20229;-69
2021/05/28 12:10:44;;;;;;;0.70;0.70;;;18.90;61.90;;;;;;5072695;28;20254;-68
2021/05/28 12:13:12;;;;;;;2.03;0.77;;;18.90;61.20;;;;;;5059439;28;20233;-68
2021/05/28 12:15:40;;;;;;;2.20;0.70;;;18.90;61.00;;;;;;5073751;28;20243;-69
2021/05/28 12:18:15;;;;;;;3.40;2.23;;;18.90;60.30;;;;;;5072641;28;20733;-68
2021/05/28 12:20:44;;;;;;;3.10;1.13;;;18.90;60.50;;;;;;5067778;28;20268;-69
2021/05/28 12:23:13;;;;;;;0.60;0.60;;;19.00;60.80;;;;;;5064753;28;20213;-68
2021/05/28 12:25:51;;;;;;;0.75;0.70;;;19.30;60.60;;;;;;5074169;28;20318;-69
2021/05/28 12:28:39;;;;;;;1.20;0.68;;;19.50;60.00;;;;;;5074399;28;20232;-70
2021/05/28 12:31:19;;;;;;;0.85;0.70;;;19.70;59.60;;;;;;5073579;28;20305;-69
2021/05/28 12:33:50;;;;;;;1.90;0.77;;;20.10;59.40;;;;;;5060833;28;20205;-67
2021/05/28 12:36:18;;;;;;;1.55;1.00;;;20.40;59.40;;;;;;5061004;28;20287;-68
2021/05/28 12:38:46;;;;;;;2.30;1.05;;;20.60;58.50;;;;;;5072114;28;20210;-69
2021/05/28 12:41:16;;;;;;;2.05;0.73;;;20.80;58.00;;;;;;5073183;28;20209;-68
2021/05/28 12:43:43;;;;;;;0.65;0.50;;;21.00;57.70;;;;;;5068301;28;20269;-68
2021/05/28 12:46:18;;;;;;;0.60;0.60;;;21.30;57.30;;;;;;5067534;28;20209;-67
2021/05/28 12:48:48;;;;;;;0.95;0.60;;;21.50;56.50;;;;;;5069616;28;20629;-69
2021/05/28 12:51:17;;;;;;;0.70;0.70;;;21.70;55.10;;;;;;5053433;28;20279;-68